Time;durP1;ratioP1;P1;durP2;ratioP2;P2;SDS_P1;SDS_P2;PMS_P1;PMS_P2;Temp;Humidity;BMP_temperature;BMP_pressure;BME280_temperature;BME280_humidity;BME280_pressure;Samples;Min_cycle;Max_cycle;Signal;HPM_P1;HPM_P2
2022/04/12 00:00:31;;;;;;;6.07;4.93;;;;;;;;;;5132003;27;21024;-71
2022/04/12 00:02:58;;;;;;;6.30;4.70;;;;;;;;;;5128026;27;20453;-72
2022/04/12 00:05:25;;;;;;;9.33;4.83;;;;;;;;;;5108835;27;20480;-72
2022/04/12 00:07:54;;;;;;;10.63;5.27;;;;;;;;;;5130846;27;20886;-72
2022/04/12 00:10:21;;;;;;;7.60;5.30;;;;;;;;;;5120538;27;20481;-71
2022/04/12 00:12:49;;;;;;;8.23;4.20;;;;;;;;;;5130533;27;20450;-72
2022/04/12 00:15:16;;;;;;;6.07;4.93;;;;;;;;;;5122461;27;20947;-72
2022/04/12 00:20:28;;;;;;;9.23;5.40;;;;;;;;;;5130916;27;20565;-70
2022/04/12 00:22:57;;;;;;;5.37;4.60;;;;;;;;;;5129707;27;20460;-71
2022/04/12 00:25:24;;;;;;;7.07;4.47;;;;;;;;;;5130792;27;20776;-72
2022/04/12 00:27:52;;;;;;;7.30;5.63;;;;;;;;;;5129218;27;20535;-71
2022/04/12 00:30:20;;;;;;;7.87;5.40;;;;;;;;;;5115878;27;21002;-71
2022/04/12 00:32:50;;;;;;;5.70;4.60;;;;;;;;;;5130107;27;20965;-71
2022/04/12 00:35:17;;;;;;;8.20;5.37;;;;;;;;;;5107843;27;20450;-71
2022/04/12 00:37:44;;;;;;;5.27;4.73;;;;;;;;;;5094624;27;20460;-71
2022/04/12 00:40:14;;;;;;;5.37;4.57;;;;;;;;;;5118162;27;20497;-71
2022/04/12 00:42:42;;;;;;;5.97;4.80;;;;;;;;;;5132506;27;20948;-71
2022/04/12 00:45:09;;;;;;;6.23;3.93;;;;;;;;;;5125102;27;20443;-70
2022/04/12 00:47:36;;;;;;;7.30;5.23;;;;;;;;;;5129010;27;20450;-71
2022/04/12 00:50:04;;;;;;;6.63;4.63;;;;;;;;;;5105512;27;20447;-71
2022/04/12 00:52:32;;;;;;;10.50;6.60;;;;;;;;;;5116536;27;20540;-70
2022/04/12 00:55:02;;;;;;;5.90;4.33;;;;;;;;;;5123193;27;20454;-72
2022/04/12 00:57:31;;;;;;;5.10;4.30;;;;;;;;;;5117835;27;20494;-72
2022/04/12 01:00:00;;;;;;;7.93;5.13;;;;;;;;;;5114512;27;20534;-71
2022/04/12 01:02:27;;;;;;;7.77;5.30;;;;;;;;;;5112164;27;20539;-71
2022/04/12 01:04:54;;;;;;;6.37;4.70;;;;;;;;;;5112447;27;20444;-71
2022/04/12 01:07:22;;;;;;;12.90;4.73;;;;;;;;;;5127712;27;20447;-71
2022/04/12 01:09:49;;;;;;;5.73;4.73;;;;;;;;;;5116730;27;20806;-71
2022/04/12 01:12:18;;;;;;;5.80;5.00;;;;;;;;;;5124156;27;20463;-71
2022/04/12 01:14:47;;;;;;;7.73;5.60;;;;;;;;;;5109205;27;20443;-71
2022/04/12 01:17:15;;;;;;;7.90;5.50;;;;;;;;;;5128281;27;20447;-71
2022/04/12 01:19:42;;;;;;;8.30;5.87;;;;;;;;;;5105546;27;20443;-71
2022/04/12 01:22:11;;;;;;;5.67;5.00;;;;;;;;;;5115640;27;20566;-70
2022/04/12 01:24:40;;;;;;;5.67;4.23;;;;;;;;;;5131975;27;20469;-70
2022/04/12 01:27:07;;;;;;;6.30;4.90;;;;;;;;;;5130529;27;20443;-70
2022/04/12 01:29:35;;;;;;;5.73;4.30;;;;;;;;;;5122331;27;20478;-70
2022/04/12 01:32:07;;;;;;;5.73;4.77;;;;;;;;;;5127181;27;20444;-70
2022/04/12 01:34:34;;;;;;;9.30;5.77;;;;;;;;;;5119624;27;20447;-71
2022/04/12 01:37:02;;;;;;;5.50;4.90;;;;;;;;;;5120219;27;20446;-71
2022/04/12 01:39:30;;;;;;;6.57;5.30;;;;;;;;;;5127836;27;20563;-71
2022/04/12 01:41:58;;;;;;;7.33;5.20;;;;;;;;;;5111032;27;21245;-71
2022/04/12 01:44:25;;;;;;;6.57;4.73;;;;;;;;;;5129384;27;20453;-70
2022/04/12 01:46:52;;;;;;;6.27;5.00;;;;;;;;;;5126550;27;20446;-71
2022/04/12 01:49:20;;;;;;;7.57;5.03;;;;;;;;;;5123024;27;20451;-70
2022/04/12 01:51:48;;;;;;;7.17;4.60;;;;;;;;;;5124770;27;20450;-70
2022/04/12 01:54:15;;;;;;;5.07;4.40;;;;;;;;;;5127620;27;20450;-71
2022/04/12 01:56:42;;;;;;;8.43;4.80;;;;;;;;;;5131481;27;20453;-71
2022/04/12 01:59:10;;;;;;;5.80;4.73;;;;;;;;;;5130825;27;20443;-70
2022/04/12 02:01:38;;;;;;;7.13;4.97;;;;;;;;;;5119324;28;20475;-72
2022/04/12 02:04:05;;;;;;;6.13;4.90;;;;;;;;;;5121305;28;20447;-70
2022/04/12 02:06:32;;;;;;;9.83;4.67;;;;;;;;;;5129266;27;20443;-70
2022/04/12 02:08:59;;;;;;;7.53;4.70;;;;;;;;;;5130391;28;20458;-70
2022/04/12 02:11:27;;;;;;;6.13;4.40;;;;;;;;;;5124517;27;20811;-71
2022/04/12 02:13:54;;;;;;;6.10;4.90;;;;;;;;;;5117001;28;20998;-71
2022/04/12 02:16:23;;;;;;;5.73;5.13;;;;;;;;;;5129618;27;21030;-71
2022/04/12 02:18:50;;;;;;;5.20;4.70;;;;;;;;;;5126884;27;20525;-71
2022/04/12 02:21:17;;;;;;;7.83;5.17;;;;;;;;;;5128883;28;20471;-72
2022/04/12 02:23:44;;;;;;;5.47;4.93;;;;;;;;;;5131759;27;20531;-71
2022/04/12 02:26:12;;;;;;;5.60;4.57;;;;;;;;;;5121915;27;20538;-70
2022/04/12 02:28:39;;;;;;;7.73;4.80;;;;;;;;;;5129933;27;20854;-70
2022/04/12 02:31:06;;;;;;;6.13;3.80;;;;;;;;;;5121184;27;20451;-70
2022/04/12 02:33:34;;;;;;;6.70;5.13;;;;;;;;;;5134902;27;20443;-70
2022/04/12 02:36:02;;;;;;;5.80;5.20;;;;;;;;;;5133761;27;20534;-71
2022/04/12 02:38:29;;;;;;;7.20;5.47;;;;;;;;;;5125321;27;20443;-70
2022/04/12 02:40:56;;;;;;;6.40;5.53;;;;;;;;;;5126785;27;20821;-70
2022/04/12 02:43:23;;;;;;;6.20;5.20;;;;;;;;;;5128389;27;20446;-71
2022/04/12 02:45:50;;;;;;;6.90;4.53;;;;;;;;;;5135328;27;20961;-71
2022/04/12 02:48:18;;;;;;;9.23;4.83;;;;;;;;;;5134950;27;20447;-70
2022/04/12 02:50:47;;;;;;;5.10;4.50;;;;;;;;;;5135095;27;20457;-71
2022/04/12 02:53:15;;;;;;;5.97;5.23;;;;;;;;;;5134494;27;20927;-71
2022/04/12 02:55:42;;;;;;;7.43;4.60;;;;;;;;;;5121967;27;20447;-71
2022/04/12 02:58:09;;;;;;;5.93;5.33;;;;;;;;;;5134489;27;20457;-71
2022/04/12 03:00:36;;;;;;;5.60;4.87;;;;;;;;;;5134507;27;20541;-71
2022/04/12 03:03:04;;;;;;;7.37;5.23;;;;;;;;;;5107707;27;20442;-71
2022/04/12 03:05:31;;;;;;;7.53;5.27;;;;;;;;;;5128339;27;20482;-71
2022/04/12 03:07:59;;;;;;;5.50;4.97;;;;;;;;;;5135285;27;20446;-71
2022/04/12 03:10:26;;;;;;;7.10;5.03;;;;;;;;;;5134141;27;20449;-71
2022/04/12 03:12:53;;;;;;;6.67;5.10;;;;;;;;;;5134817;27;20446;-72
2022/04/12 03:15:21;;;;;;;9.00;5.10;;;;;;;;;;5134052;27;20526;-72
2022/04/12 03:17:48;;;;;;;7.03;5.33;;;;;;;;;;5134539;27;20537;-71
2022/04/12 03:20:15;;;;;;;7.13;5.83;;;;;;;;;;5133065;27;20471;-70
2022/04/12 03:22:42;;;;;;;8.00;5.73;;;;;;;;;;5131008;27;20557;-73
2022/04/12 03:25:11;;;;;;;10.60;5.80;;;;;;;;;;5134182;27;20578;-71
2022/04/12 03:27:39;;;;;;;7.43;5.03;;;;;;;;;;5134695;27;20526;-72
2022/04/12 03:30:06;;;;;;;8.77;6.77;;;;;;;;;;5134608;27;20454;-70
2022/04/12 03:32:33;;;;;;;6.93;5.07;;;;;;;;;;5128571;27;20445;-71
2022/04/12 03:35:01;;;;;;;7.53;5.00;;;;;;;;;;5134364;27;20446;-71
2022/04/12 03:37:28;;;;;;;6.37;5.57;;;;;;;;;;5124525;27;20452;-73
2022/04/12 03:39:55;;;;;;;7.17;5.40;;;;;;;;;;5129696;27;20557;-72
2022/04/12 03:42:24;;;;;;;8.07;5.87;;;;;;;;;;5123651;27;20482;-71
2022/04/12 03:44:52;;;;;;;7.70;6.00;;;;;;;;;;5132250;27;20462;-71
2022/04/12 03:47:20;;;;;;;8.97;5.07;;;;;;;;;;5132155;27;20527;-71
2022/04/12 03:49:47;;;;;;;9.43;5.60;;;;;;;;;;5127696;27;20443;-71
2022/04/12 03:52:15;;;;;;;6.70;5.40;;;;;;;;;;5132911;27;20538;-71
2022/04/12 03:54:42;;;;;;;7.07;5.30;;;;;;;;;;5128104;27;20448;-71
2022/04/12 03:57:09;;;;;;;7.73;5.30;;;;;;;;;;5125744;27;20451;-71
2022/04/12 03:59:38;;;;;;;7.80;5.63;;;;;;;;;;5123521;27;20443;-71
2022/04/12 04:02:05;;;;;;;7.50;5.50;;;;;;;;;;5132642;27;20470;-71
2022/04/12 04:04:32;;;;;;;7.10;5.20;;;;;;;;;;5128369;27;20491;-71
2022/04/12 04:07:00;;;;;;;8.60;4.40;;;;;;;;;;5122108;27;20473;-71
2022/04/12 04:09:27;;;;;;;5.60;4.60;;;;;;;;;;5130714;27;20443;-71
2022/04/12 04:11:56;;;;;;;7.90;5.67;;;;;;;;;;5132711;27;20447;-71
2022/04/12 04:14:23;;;;;;;6.63;5.37;;;;;;;;;;5131036;27;20533;-72
2022/04/12 04:16:51;;;;;;;6.30;4.73;;;;;;;;;;5120705;27;20516;-71
2022/04/12 04:19:18;;;;;;;6.60;4.93;;;;;;;;;;5123992;27;20446;-71
2022/04/12 04:21:46;;;;;;;6.13;5.13;;;;;;;;;;5127535;27;20480;-70
2022/04/12 04:24:13;;;;;;;7.37;5.60;;;;;;;;;;5131760;27;20534;-71
2022/04/12 04:26:40;;;;;;;6.73;5.27;;;;;;;;;;5133379;27;20534;-71
2022/04/12 04:29:07;;;;;;;7.80;5.50;;;;;;;;;;5132852;27;20467;-71
2022/04/12 04:31:34;;;;;;;6.70;5.13;;;;;;;;;;5133206;27;20504;-71
2022/04/12 04:34:03;;;;;;;10.93;6.90;;;;;;;;;;5124461;27;20452;-73
2022/04/12 04:36:30;;;;;;;9.67;6.37;;;;;;;;;;5119264;27;20527;-71
2022/04/12 04:38:58;;;;;;;9.67;5.93;;;;;;;;;;5121512;27;20544;-72
2022/04/12 04:41:25;;;;;;;6.47;5.60;;;;;;;;;;5131945;27;20538;-77
2022/04/12 04:43:52;;;;;;;7.43;5.30;;;;;;;;;;5118381;27;20521;-73
2022/04/12 04:46:19;;;;;;;9.37;6.17;;;;;;;;;;5132581;27;20438;-72
2022/04/12 04:48:46;;;;;;;9.10;5.80;;;;;;;;;;5132754;27;20541;-72
2022/04/12 04:51:15;;;;;;;9.77;6.60;;;;;;;;;;5128662;27;20513;-76
2022/04/12 04:53:45;;;;;;;14.13;8.67;;;;;;;;;;5127516;27;20443;-72
2022/04/12 04:56:12;;;;;;;9.97;6.37;;;;;;;;;;5132365;27;20489;-74
2022/04/12 04:58:39;;;;;;;7.87;5.70;;;;;;;;;;5123824;27;20489;-72
2022/04/12 05:01:06;;;;;;;10.80;5.73;;;;;;;;;;5121765;27;20443;-72
2022/04/12 05:03:33;;;;;;;6.80;5.50;;;;;;;;;;5127813;27;21013;-72
2022/04/12 05:06:00;;;;;;;6.90;5.87;;;;;;;;;;5130777;27;20453;-72
2022/04/12 05:08:29;;;;;;;8.40;5.63;;;;;;;;;;5132502;27;20459;-72
2022/04/12 05:10:56;;;;;;;8.10;6.07;;;;;;;;;;5131854;27;20968;-73
2022/04/12 05:13:23;;;;;;;7.30;5.40;;;;;;;;;;5132239;27;20446;-73
2022/04/12 05:15:50;;;;;;;10.23;5.10;;;;;;;;;;5132323;27;20478;-73
2022/04/12 05:18:18;;;;;;;7.23;5.53;;;;;;;;;;5131802;27;21010;-72
2022/04/12 05:20:45;;;;;;;7.30;5.17;;;;;;;;;;5131756;27;20529;-72
2022/04/12 05:23:12;;;;;;;11.10;6.60;;;;;;;;;;5131934;27;20573;-72
2022/04/12 05:25:40;;;;;;;10.70;4.83;;;;;;;;;;5132267;27;20443;-72
2022/04/12 05:28:08;;;;;;;6.93;5.83;;;;;;;;;;5131762;27;20817;-72
2022/04/12 05:30:35;;;;;;;7.90;6.00;;;;;;;;;;5131932;27;20451;-72
2022/04/12 05:33:02;;;;;;;7.43;5.83;;;;;;;;;;5132177;27;20457;-72
2022/04/12 05:35:29;;;;;;;7.50;5.50;;;;;;;;;;5132265;27;20529;-72
2022/04/12 05:37:56;;;;;;;8.10;5.93;;;;;;;;;;5118283;27;20462;-72
2022/04/12 05:40:24;;;;;;;7.93;5.63;;;;;;;;;;5130919;27;20481;-72
2022/04/12 05:42:52;;;;;;;11.03;6.80;;;;;;;;;;5131952;27;20478;-73
2022/04/12 05:45:19;;;;;;;8.53;6.10;;;;;;;;;;5131833;27;20458;-73
2022/04/12 05:47:49;;;;;;;6.53;5.70;;;;;;;;;;5131779;27;20525;-72
2022/04/12 05:50:17;;;;;;;6.77;5.40;;;;;;;;;;5131305;27;21104;-73
2022/04/12 05:52:44;;;;;;;12.63;6.10;;;;;;;;;;5132068;27;20446;-73
2022/04/12 05:55:12;;;;;;;7.73;6.50;;;;;;;;;;5131281;27;20508;-72
2022/04/12 05:57:39;;;;;;;10.53;6.13;;;;;;;;;;5131487;27;20530;-73
2022/04/12 06:00:09;;;;;;;6.73;6.03;;;;;;;;;;5130904;27;20528;-72
2022/04/12 06:02:36;;;;;;;9.47;6.10;;;;;;;;;;5132026;27;20478;-72
2022/04/12 06:05:04;;;;;;;6.50;5.80;;;;;;;;;;5124981;27;20492;-73
2022/04/12 06:07:32;;;;;;;7.80;6.37;;;;;;;;;;5131360;27;20799;-72
2022/04/12 06:10:00;;;;;;;11.23;6.20;;;;;;;;;;5131921;27;20439;-71
2022/04/12 06:12:27;;;;;;;9.10;6.40;;;;;;;;;;5131214;27;20454;-72
2022/04/12 06:14:54;;;;;;;7.53;5.53;;;;;;;;;;5132018;27;20446;-72
2022/04/12 06:17:23;;;;;;;8.43;6.63;;;;;;;;;;5131292;27;20530;-72
2022/04/12 06:19:50;;;;;;;12.67;6.93;;;;;;;;;;5131894;27;20943;-72
2022/04/12 06:22:17;;;;;;;8.70;6.40;;;;;;;;;;5130705;27;20512;-72
2022/04/12 06:24:44;;;;;;;9.20;6.70;;;;;;;;;;5131839;27;20475;-72
2022/04/12 06:27:11;;;;;;;8.53;5.43;;;;;;;;;;5130912;27;20489;-72
2022/04/12 06:29:39;;;;;;;10.63;6.30;;;;;;;;;;5131467;27;20810;-72
2022/04/12 06:32:07;;;;;;;8.07;5.83;;;;;;;;;;5130326;27;20507;-71
2022/04/12 06:34:35;;;;;;;7.97;5.33;;;;;;;;;;5130919;27;20449;-72
2022/04/12 06:37:03;;;;;;;7.97;5.53;;;;;;;;;;5125437;27;20446;-72
2022/04/12 06:39:30;;;;;;;10.07;6.37;;;;;;;;;;5124524;28;20566;-72
2022/04/12 06:41:57;;;;;;;8.10;5.50;;;;;;;;;;5104125;28;20441;-72
2022/04/12 06:44:24;;;;;;;7.23;5.30;;;;;;;;;;5131004;27;20932;-71
2022/04/12 06:46:51;;;;;;;9.20;5.83;;;;;;;;;;5131328;27;20453;-72
2022/04/12 06:49:18;;;;;;;7.70;5.10;;;;;;;;;;5130893;27;20529;-71
2022/04/12 06:51:47;;;;;;;7.83;5.90;;;;;;;;;;5131228;27;20453;-72
2022/04/12 06:54:14;;;;;;;7.73;5.80;;;;;;;;;;5130614;27;20982;-72
2022/04/12 06:56:41;;;;;;;9.30;5.03;;;;;;;;;;5131548;27;20455;-72
2022/04/12 06:59:08;;;;;;;22.83;6.87;;;;;;;;;;5130969;27;20529;-71
2022/04/12 07:01:35;;;;;;;6.50;5.90;;;;;;;;;;5130853;27;20930;-72
2022/04/12 07:04:03;;;;;;;7.23;4.90;;;;;;;;;;5123971;27;20916;-72
2022/04/12 07:06:30;;;;;;;6.70;6.07;;;;;;;;;;5131614;27;20454;-72
2022/04/12 07:08:58;;;;;;;6.40;5.00;;;;;;;;;;5130980;27;20451;-73
2022/04/12 07:11:26;;;;;;;6.20;5.57;;;;;;;;;;5130380;27;20800;-71
2022/04/12 07:13:53;;;;;;;8.07;5.00;;;;;;;;;;5131136;27;20529;-71
2022/04/12 07:16:20;;;;;;;6.77;5.30;;;;;;;;;;5130556;27;20443;-72
2022/04/12 07:18:47;;;;;;;6.27;4.70;;;;;;;;;;5132738;27;20459;-72
2022/04/12 07:21:21;;;;;;;6.97;5.27;;;;;;;;;;5133969;27;20438;-72
2022/04/12 07:23:50;;;;;;;7.43;4.60;;;;;;;;;;5134877;27;20870;-72
2022/04/12 07:26:19;;;;;;;9.67;7.40;;;;;;;;;;5134011;27;20555;-72
2022/04/12 07:28:46;;;;;;;6.83;4.73;;;;;;;;;;5134334;27;20477;-73
2022/04/12 07:31:13;;;;;;;8.23;5.33;;;;;;;;;;5133822;27;20676;-71
2022/04/12 07:33:40;;;;;;;6.23;5.03;;;;;;;;;;5133621;27;20479;-72
2022/04/12 07:36:07;;;;;;;9.93;5.30;;;;;;;;;;5134096;27;20446;-72
2022/04/12 07:38:34;;;;;;;5.77;4.60;;;;;;;;;;5120710;27;20538;-72
2022/04/12 07:41:02;;;;;;;5.37;4.63;;;;;;;;;;5134596;27;20482;-72
2022/04/12 07:43:30;;;;;;;9.27;5.13;;;;;;;;;;5133760;27;20478;-73
2022/04/12 07:45:57;;;;;;;10.33;4.43;;;;;;;;;;5134282;27;20486;-72
2022/04/12 07:48:24;;;;;;;5.80;4.97;;;;;;;;;;5133623;27;20651;-72
2022/04/12 07:50:52;;;;;;;5.70;4.70;;;;;;;;;;5133968;27;20439;-72
2022/04/12 07:53:19;;;;;;;5.83;4.20;;;;;;;;;;5119999;27;20504;-72
2022/04/12 07:55:46;;;;;;;7.70;4.50;;;;;;;;;;5134394;27;20534;-73
2022/04/12 07:58:13;;;;;;;5.93;4.70;;;;;;;;;;5120124;27;20481;-74
2022/04/12 08:00:42;;;;;;;6.17;4.60;;;;;;;;;;5133740;27;20525;-72
2022/04/12 08:03:09;;;;;;;9.70;4.87;;;;;;;;;;5104954;27;20561;-72
2022/04/12 08:05:36;;;;;;;3.87;3.50;;;;;;;;;;5127640;27;20791;-72
2022/04/12 08:08:05;;;;;;;6.80;5.20;;;;;;;;;;5134080;27;20550;-73
2022/04/12 08:10:32;;;;;;;5.50;4.53;;;;;;;;;;5133957;27;20855;-72
2022/04/12 08:12:59;;;;;;;5.40;4.47;;;;;;;;;;5133909;27;20451;-72
2022/04/12 08:15:27;;;;;;;5.93;4.97;;;;;;;;;;5133341;27;20471;-72
2022/04/12 08:17:55;;;;;;;4.50;3.93;;;;;;;;;;5133944;27;20793;-72
2022/04/12 08:20:23;;;;;;;6.00;4.77;;;;;;;;;;5132427;27;20943;-72
2022/04/12 08:22:52;;;;;;;7.00;4.10;;;;;;;;;;5133707;27;20474;-72
2022/04/12 08:25:19;;;;;;;6.20;5.07;;;;;;;;;;5132798;27;21001;-72
2022/04/12 08:27:47;;;;;;;5.23;4.73;;;;;;;;;;5133780;27;20869;-72
2022/04/12 08:30:14;;;;;;;5.80;4.10;;;;;;;;;;5132073;27;20534;-72
2022/04/12 08:32:41;;;;;;;9.47;4.87;;;;;;;;;;5133547;27;20531;-72
2022/04/12 08:35:10;;;;;;;10.70;4.37;;;;;;;;;;5130589;27;20447;-71
2022/04/12 08:37:38;;;;;;;9.57;5.17;;;;;;;;;;5122259;27;20490;-72
2022/04/12 08:40:05;;;;;;;5.20;4.70;;;;;;;;;;5130149;27;20514;-71
2022/04/12 08:42:33;;;;;;;5.10;4.30;;;;;;;;;;5133418;27;20987;-73
2022/04/12 08:45:00;;;;;;;5.60;4.67;;;;;;;;;;5133037;27;20447;-73
2022/04/12 08:47:27;;;;;;;6.20;4.07;;;;;;;;;;5132762;27;20445;-73
2022/04/12 08:49:55;;;;;;;6.10;4.63;;;;;;;;;;5132710;27;20749;-72
2022/04/12 08:52:23;;;;;;;6.53;3.70;;;;;;;;;;5132619;27;20463;-72
2022/04/12 08:54:51;;;;;;;6.13;4.67;;;;;;;;;;5132841;27;20954;-73
2022/04/12 08:57:18;;;;;;;6.23;4.13;;;;;;;;;;5132269;27;20439;-73
2022/04/12 08:59:46;;;;;;;5.87;4.10;;;;;;;;;;5132217;27;20538;-72
2022/04/12 09:02:14;;;;;;;5.10;3.80;;;;;;;;;;5132146;27;20451;-72
2022/04/12 09:04:41;;;;;;;4.90;4.07;;;;;;;;;;5124961;27;20570;-72
2022/04/12 09:07:09;;;;;;;5.30;4.47;;;;;;;;;;5132048;27;20469;-72
2022/04/12 09:09:39;;;;;;;4.83;3.37;;;;;;;;;;5133055;27;20451;-72
2022/04/12 09:12:08;;;;;;;6.67;3.80;;;;;;;;;;5131988;27;20531;-72
2022/04/12 09:14:39;;;;;;;5.57;3.70;;;;;;;;;;5132679;27;20533;-72
2022/04/12 09:17:07;;;;;;;5.93;3.13;;;;;;;;;;5132094;27;20789;-72
2022/04/12 09:19:41;;;;;;;4.13;3.43;;;;;;;;;;5132952;27;20446;-73
2022/04/12 09:22:11;;;;;;;4.00;3.23;;;;;;;;;;5132158;27;20522;-72
2022/04/12 09:24:43;;;;;;;6.23;3.23;;;;;;;;;;5132523;27;20479;-72
2022/04/12 09:27:12;;;;;;;5.00;3.47;;;;;;;;;;5131799;27;20462;-71
2022/04/12 09:29:44;;;;;;;4.03;2.97;;;;;;;;;;5131912;27;20450;-74
2022/04/12 09:32:14;;;;;;;3.90;2.80;;;;;;;;;;5131529;27;20442;-73
2022/04/12 09:34:41;;;;;;;4.07;3.53;;;;;;;;;;5131176;27;20458;-72
2022/04/12 09:37:18;;;;;;;4.80;3.60;;;;;;;;;;5124661;27;20787;-72
2022/04/12 09:39:48;;;;;;;3.50;3.10;;;;;;;;;;5126596;27;20478;-73
2022/04/12 09:42:15;;;;;;;4.10;2.90;;;;;;;;;;5130865;27;20783;-73
2022/04/12 09:44:43;;;;;;;4.97;3.10;;;;;;;;;;5131719;27;20479;-73
2022/04/12 09:47:14;;;;;;;7.60;2.70;;;;;;;;;;5131775;27;20434;-73
2022/04/12 09:49:48;;;;;;;4.00;2.63;;;;;;;;;;5132056;27;20438;-73
2022/04/12 09:52:15;;;;;;;3.40;2.57;;;;;;;;;;5131773;27;20449;-73
2022/04/12 09:54:42;;;;;;;2.30;1.93;;;;;;;;;;5132076;27;20511;-73
2022/04/12 09:57:11;;;;;;;3.93;2.40;;;;;;;;;;5131614;27;20443;-73
2022/04/12 09:59:39;;;;;;;3.47;2.10;;;;;;;;;;5131184;27;20446;-73
2022/04/12 10:02:06;;;;;;;3.43;2.40;;;;;;;;;;5131290;27;20495;-72
2022/04/12 10:04:36;;;;;;;2.10;1.90;;;;;;;;;;5124136;27;20514;-73
2022/04/12 10:07:04;;;;;;;6.10;2.90;;;;;;;;;;5132167;27;20454;-73
2022/04/12 10:09:32;;;;;;;5.13;2.50;;;;;;;;;;5131822;27;20529;-73
2022/04/12 10:11:59;;;;;;;3.03;1.53;;;;;;;;;;5132354;27;20778;-73
2022/04/12 10:14:28;;;;;;;2.30;2.10;;;;;;;;;;5130972;27;20459;-73
2022/04/12 10:16:56;;;;;;;3.33;2.10;;;;;;;;;;5132143;27;20454;-73
2022/04/12 10:19:23;;;;;;;5.10;2.47;;;;;;;;;;5104043;28;20449;-73
2022/04/12 10:21:50;;;;;;;3.90;2.60;;;;;;;;;;5131462;27;20450;-71
2022/04/12 10:24:19;;;;;;;4.10;2.13;;;;;;;;;;5117419;28;20986;-72
2022/04/12 10:26:47;;;;;;;3.80;1.97;;;;;;;;;;5131433;27;20930;-71
2022/04/12 10:29:15;;;;;;;2.23;2.03;;;;;;;;;;5130916;27;20529;-71
2022/04/12 10:31:55;;;;;;;2.70;1.90;;;;;;;;;;5130891;27;20549;-72
2022/04/12 10:34:22;;;;;;;1.93;1.73;;;;;;;;;;5129536;27;20457;-74
2022/04/12 10:36:56;;;;;;;1.83;1.73;;;;;;;;;;5126807;27;20432;-75
2022/04/12 10:39:26;;;;;;;2.60;2.40;;;;;;;;;;5123115;28;20832;-72
2022/04/12 10:41:56;;;;;;;2.50;1.87;;;;;;;;;;5131726;27;20443;-74
2022/04/12 10:44:23;;;;;;;4.23;2.40;;;;;;;;;;5130897;27;20841;-73
2022/04/12 10:46:51;;;;;;;2.63;2.40;;;;;;;;;;5117791;28;20446;-73
2022/04/12 10:49:20;;;;;;;3.40;2.30;;;;;;;;;;5130691;27;20561;-71
2022/04/12 10:51:48;;;;;;;2.63;1.83;;;;;;;;;;5104506;27;21010;-73
2022/04/12 10:54:29;;;;;;;5.23;2.47;;;;;;;;;;5134783;27;20452;-72
2022/04/12 10:57:14;;;;;;;4.43;2.53;;;;;;;;;;5135441;27;20473;-73
2022/04/12 10:59:47;;;;;;;2.80;2.17;;;;;;;;;;5134673;27;20446;-73
2022/04/12 11:02:14;;;;;;;7.40;2.00;;;;;;;;;;5135471;27;20438;-73
2022/04/12 11:04:43;;;;;;;5.40;2.77;;;;;;;;;;5127800;27;20482;-73
2022/04/12 11:07:10;;;;;;;3.27;2.33;;;;;;;;;;5135105;27;20795;-72
2022/04/12 11:09:37;;;;;;;2.77;2.40;;;;;;;;;;5134572;27;20457;-73
2022/04/12 11:12:05;;;;;;;3.03;1.80;;;;;;;;;;5135195;27;20443;-71
2022/04/12 11:14:36;;;;;;;3.23;2.10;;;;;;;;;;5134897;27;20957;-72
2022/04/12 11:17:04;;;;;;;3.00;2.47;;;;;;;;;;5134908;27;20477;-72
2022/04/12 11:19:42;;;;;;;3.73;1.97;;;;;;;;;;5134854;27;20521;-72
2022/04/12 11:22:11;;;;;;;3.47;2.23;;;;;;;;;;5134706;27;20442;-72
2022/04/12 11:24:39;;;;;;;5.43;2.13;;;;;;;;;;5134965;27;20485;-72
2022/04/12 11:27:10;;;;;;;7.07;2.67;;;;;;;;;;5133973;27;20528;-72
2022/04/12 11:29:37;;;;;;;3.07;2.40;;;;;;;;;;5134282;27;20841;-72
2022/04/12 11:32:05;;;;;;;2.20;1.97;;;;;;;;;;5134338;27;20439;-72
2022/04/12 11:34:32;;;;;;;2.30;2.10;;;;;;;;;;5132841;27;20987;-73
2022/04/12 11:37:02;;;;;;;3.33;2.13;;;;;;;;;;5128476;27;20435;-74
2022/04/12 11:39:30;;;;;;;4.40;3.00;;;;;;;;;;5126141;27;20850;-72
2022/04/12 11:41:58;;;;;;;6.50;2.50;;;;;;;;;;5134285;27;20449;-72
2022/04/12 11:44:25;;;;;;;4.17;2.53;;;;;;;;;;5133286;27;20482;-72
2022/04/12 11:46:57;;;;;;;2.13;1.60;;;;;;;;;;5134595;27;20447;-72
2022/04/12 11:49:28;;;;;;;4.70;3.30;;;;;;;;;;5132840;27;20743;-73
2022/04/12 11:51:55;;;;;;;2.83;2.37;;;;;;;;;;5134094;27;20508;-72
2022/04/12 11:54:25;;;;;;;6.40;2.50;;;;;;;;;;5133755;27;20462;-72
2022/04/12 11:57:00;;;;;;;3.37;1.77;;;;;;;;;;5134334;27;20478;-73
2022/04/12 11:59:27;;;;;;;6.60;2.67;;;;;;;;;;5133074;27;20450;-73
2022/04/12 12:01:59;;;;;;;10.40;2.53;;;;;;;;;;5134046;27;20691;-73
2022/04/12 12:04:29;;;;;;;7.80;3.30;;;;;;;;;;5125041;27;20493;-73
2022/04/12 12:07:01;;;;;;;5.63;2.20;;;;;;;;;;5133742;27;20450;-73
2022/04/12 12:09:29;;;;;;;4.90;1.40;;;;;;;;;;5133053;27;20454;-73
2022/04/12 12:12:00;;;;;;;5.60;1.70;;;;;;;;;;5133977;27;20439;-73
2022/04/12 12:14:28;;;;;;;4.00;1.83;;;;;;;;;;5106326;27;20446;-73
2022/04/12 12:17:06;;;;;;;3.07;2.10;;;;;;;;;;5133484;27;20454;-72
2022/04/12 12:19:37;;;;;;;5.90;1.90;;;;;;;;;;5133817;27;20451;-71
2022/04/12 12:22:05;;;;;;;3.00;1.87;;;;;;;;;;5133526;27;20990;-71
2022/04/12 12:24:37;;;;;;;3.57;1.73;;;;;;;;;;5133872;27;20574;-72
2022/04/12 12:27:05;;;;;;;3.50;1.97;;;;;;;;;;5133787;27;20439;-71
2022/04/12 12:29:38;;;;;;;2.33;2.13;;;;;;;;;;5133288;27;20462;-72
2022/04/12 12:32:05;;;;;;;6.77;2.67;;;;;;;;;;5133132;27;20518;-71
2022/04/12 12:34:33;;;;;;;3.27;2.00;;;;;;;;;;5132857;27;20521;-72
2022/04/12 12:37:07;;;;;;;13.20;2.60;;;;;;;;;;5127475;27;20428;-72
2022/04/12 12:39:39;;;;;;;4.83;2.80;;;;;;;;;;5126099;27;20515;-73
2022/04/12 12:42:06;;;;;;;4.63;1.90;;;;;;;;;;5132462;27;20453;-72
2022/04/12 12:44:34;;;;;;;4.10;2.37;;;;;;;;;;5133276;27;20928;-72
2022/04/12 12:47:04;;;;;;;4.30;2.10;;;;;;;;;;5133453;27;20453;-72
2022/04/12 12:49:35;;;;;;;4.50;1.80;;;;;;;;;;5132910;27;20450;-72
2022/04/12 12:52:03;;;;;;;5.10;2.27;;;;;;;;;;5133416;27;20443;-73
2022/04/12 12:54:30;;;;;;;2.87;1.93;;;;;;;;;;5132847;27;20541;-72
2022/04/12 12:57:01;;;;;;;2.10;1.23;;;;;;;;;;5132798;27;20453;-72
2022/04/12 12:59:30;;;;;;;2.03;1.57;;;;;;;;;;5131960;27;20803;-73
2022/04/12 13:01:57;;;;;;;3.97;1.57;;;;;;;;;;5132959;27;20565;-71
2022/04/12 13:04:25;;;;;;;2.00;1.33;;;;;;;;;;5123127;27;21408;-71
2022/04/12 13:07:01;;;;;;;2.47;1.50;;;;;;;;;;5132593;27;20450;-73
2022/04/12 13:09:29;;;;;;;2.63;1.60;;;;;;;;;;5131462;27;20449;-72
2022/04/12 13:11:56;;;;;;;5.00;1.80;;;;;;;;;;5132950;27;20451;-72
2022/04/12 13:14:24;;;;;;;3.87;1.57;;;;;;;;;;5131904;27;20549;-72
2022/04/12 13:16:51;;;;;;;1.40;1.30;;;;;;;;;;5132697;27;20542;-72
2022/04/12 13:19:25;;;;;;;4.77;1.87;;;;;;;;;;5131147;27;20525;-72
2022/04/12 13:21:53;;;;;;;2.20;1.50;;;;;;;;;;5132537;27;20439;-72
2022/04/12 13:24:20;;;;;;;1.87;1.33;;;;;;;;;;5132018;27;20513;-72
2022/04/12 13:26:47;;;;;;;1.80;1.60;;;;;;;;;;5132043;27;20447;-72
2022/04/12 13:29:14;;;;;;;1.43;1.20;;;;;;;;;;5131549;27;20877;-72
2022/04/12 13:31:43;;;;;;;8.50;1.80;;;;;;;;;;5132020;27;20979;-73
2022/04/12 13:34:10;;;;;;;2.93;1.53;;;;;;;;;;5130435;27;20450;-72
2022/04/12 13:36:37;;;;;;;10.63;3.63;;;;;;;;;;5129261;27;20443;-73
2022/04/12 13:39:05;;;;;;;3.17;1.93;;;;;;;;;;5121503;27;20482;-71
2022/04/12 13:41:32;;;;;;;3.07;1.70;;;;;;;;;;5131638;27;20455;-73
2022/04/12 13:44:00;;;;;;;2.93;1.47;;;;;;;;;;5132153;27;20463;-73
2022/04/12 13:46:27;;;;;;;4.20;2.63;;;;;;;;;;5131540;27;20446;-73
2022/04/12 13:48:55;;;;;;;3.30;1.60;;;;;;;;;;5131997;27;20454;-72
2022/04/12 13:51:22;;;;;;;6.07;2.37;;;;;;;;;;5131031;27;20435;-72
2022/04/12 13:53:50;;;;;;;1.63;1.37;;;;;;;;;;5131757;27;20447;-71
2022/04/12 13:56:17;;;;;;;3.03;1.57;;;;;;;;;;5131090;27;20486;-71
2022/04/12 13:58:44;;;;;;;3.53;1.50;;;;;;;;;;5132006;27;20545;-72
2022/04/12 14:01:11;;;;;;;1.30;1.20;;;;;;;;;;5130910;27;20439;-72
2022/04/12 14:03:38;;;;;;;2.30;1.23;;;;;;;;;;5126035;27;20454;-73
2022/04/12 14:06:07;;;;;;;1.57;1.27;;;;;;;;;;5128888;27;20562;-72
2022/04/12 14:08:36;;;;;;;1.23;1.10;;;;;;;;;;5132121;27;20541;-73
2022/04/12 14:11:06;;;;;;;5.57;2.40;;;;;;;;;;5131172;27;20449;-73
2022/04/12 14:13:34;;;;;;;2.67;2.23;;;;;;;;;;5132153;27;20454;-73
2022/04/12 14:16:01;;;;;;;1.97;1.70;;;;;;;;;;5132026;27;20451;-73
2022/04/12 14:18:28;;;;;;;3.80;1.30;;;;;;;;;;5131485;27;20473;-73
2022/04/12 14:20:55;;;;;;;1.83;1.40;;;;;;;;;;5131357;27;20534;-73
2022/04/12 14:23:24;;;;;;;3.50;2.33;;;;;;;;;;5131269;27;20459;-73
2022/04/12 14:25:51;;;;;;;3.80;2.20;;;;;;;;;;5131740;27;20475;-72
2022/04/12 14:28:18;;;;;;;9.90;2.77;;;;;;;;;;5133610;27;20434;-72
2022/04/12 14:30:45;;;;;;;1.97;1.87;;;;;;;;;;5135495;27;20949;-72
2022/04/12 14:33:13;;;;;;;7.23;2.03;;;;;;;;;;5133630;27;20924;-72
2022/04/12 14:35:41;;;;;;;3.10;2.10;;;;;;;;;;5135803;27;20446;-72
2022/04/12 14:38:08;;;;;;;3.30;1.87;;;;;;;;;;5121467;27;20788;-72
2022/04/12 14:40:36;;;;;;;1.77;1.43;;;;;;;;;;5135452;27;20513;-73
2022/04/12 14:43:04;;;;;;;1.40;1.30;;;;;;;;;;5135424;27;20485;-72
2022/04/12 14:45:31;;;;;;;4.27;1.37;;;;;;;;;;5135283;27;20474;-73
2022/04/12 14:47:58;;;;;;;1.97;1.37;;;;;;;;;;5135148;27;20458;-72
2022/04/12 14:50:26;;;;;;;2.60;1.50;;;;;;;;;;5134327;27;21007;-72